createdAt,value
2019-01-05T00:00:08.029Z,63.3
2019-01-05T00:00:57.558Z,63.3
2019-01-05T00:01:48.394Z,63.3
2019-01-05T00:02:38.489Z,63.3
2019-01-05T00:03:28.548Z,63.3
2019-01-05T00:04:18.329Z,63.3
2019-01-05T00:05:08.376Z,63.2
2019-01-05T00:05:58.448Z,63.2
2019-01-05T00:06:48.765Z,63.2
2019-01-05T00:07:38.848Z,63.2
2019-01-05T00:08:28.885Z,63.2
2019-01-05T00:09:18.675Z,63.2
2019-01-05T00:10:09.248Z,63.1
2019-01-05T00:10:58.498Z,63.2
2019-01-05T00:11:48.845Z,63.1
2019-01-05T00:12:38.886Z,63.1
2019-01-05T00:13:28.955Z,63.1
2019-01-05T00:14:18.738Z,63.1
2019-01-05T00:15:09.586Z,63.1
2019-01-05T00:33:23.109Z,62.9
2019-01-05T00:34:13.131Z,62.9
2019-01-05T00:35:02.230Z,62.9
2019-01-05T00:35:52.669Z,62.9
2019-01-05T00:36:42.474Z,62.9
2019-01-05T00:37:32.571Z,62.9
2019-01-05T00:38:23.142Z,62.9
2019-01-05T00:39:12.688Z,62.9
2019-01-05T00:40:03.026Z,62.9
2019-01-05T00:40:53.059Z,62.8
2019-01-05T00:41:42.279Z,62.8
2019-01-05T00:42:33.458Z,62.8
2019-01-05T00:43:22.963Z,62.8
2019-01-05T00:44:12.737Z,62.8
2019-01-05T00:45:03.348Z,62.8
2019-01-05T00:45:53.386Z,62.8
2019-01-05T00:46:42.918Z,62.8
2019-01-05T00:47:33.235Z,62.8
2019-01-05T00:48:23.875Z,62.8
2019-01-05T00:49:13.331Z,62.8
2019-01-05T00:50:03.151Z,62.8
2019-01-05T00:50:54.053Z,62.8
2019-01-05T00:51:44.078Z,62.7
2019-01-05T00:52:33.856Z,62.8
2019-01-05T00:53:23.380Z,62.7
2019-01-05T00:54:14.236Z,62.7
2019-01-05T00:55:04.070Z,62.7
2019-01-05T00:55:54.368Z,62.7
2019-01-05T00:56:44.110Z,62.7
2019-01-05T00:57:34.192Z,62.6
2019-01-05T00:58:23.983Z,62.7
2019-01-05T00:59:14.370Z,62.6
2019-01-05T01:00:04.104Z,62.6
2019-01-05T01:00:54.413Z,62.6
2019-01-05T01:01:44.730Z,62.6
2019-01-05T01:02:34.858Z,62.6
2019-01-05T01:03:23.772Z,62.6
2019-01-05T01:04:14.603Z,62.6
2019-01-05T01:05:03.618Z,62.6
2019-01-05T01:05:54.206Z,62.6
2019-01-05T01:06:44.827Z,62.6
2019-01-05T01:07:34.845Z,62.6
2019-01-05T01:08:24.382Z,62.6
2019-01-05T01:09:15.594Z,62.5
2019-01-05T01:10:05.350Z,62.5
2019-01-05T01:10:55.092Z,62.5
2019-01-05T01:11:45.917Z,62.5
2019-01-05T01:12:34.109Z,62.5
2019-01-05T01:13:25.274Z,62.5
2019-01-05T01:14:15.605Z,62.5
2019-01-05T01:15:05.402Z,62.5
2019-01-05T01:15:55.162Z,62.5
2019-01-05T01:16:45.231Z,62.4
2019-01-05T01:17:35.301Z,62.4
2019-01-05T01:18:25.887Z,62.4
2019-01-05T01:19:15.953Z,62.4
2019-01-05T01:20:06.088Z,62.4
2019-01-05T01:20:56.062Z,62.4
2019-01-05T01:21:46.599Z,62.4
2019-01-05T01:22:35.889Z,62.4
2019-01-05T01:23:26.221Z,62.4
2019-01-05T01:24:15.741Z,62.4
2019-01-05T01:25:06.651Z,62.4
2019-01-05T01:25:55.788Z,62.3
2019-01-05T01:26:46.673Z,62.3
2019-01-05T01:27:36.438Z,62.3
2019-01-05T01:28:26.352Z,62.3
2019-01-05T01:29:16.271Z,62.3
2019-01-05T01:30:06.701Z,62.3
2019-01-05T01:30:56.948Z,62.3
2019-01-05T01:31:47.071Z,62.3
2019-01-05T01:32:36.876Z,62.3
2019-01-05T01:33:27.415Z,62.3
2019-01-05T01:34:16.893Z,62.3
2019-01-05T01:35:06.755Z,62.3
2019-01-05T01:35:57.570Z,62.3
2019-01-05T01:36:46.785Z,62.3
2019-01-05T01:37:36.847Z,62.2
2019-01-05T01:38:26.340Z,62.2
2019-01-05T01:39:16.953Z,62.2
2019-01-05T01:40:07.315Z,62.2
2019-01-05T01:40:57.345Z,62.2
2019-01-05T01:41:47.190Z,62.2
2019-01-05T01:42:36.955Z,62.2
2019-01-05T01:43:28.343Z,62.2
2019-01-05T01:44:17.610Z,62.1
2019-01-05T01:45:07.647Z,62.1
2019-01-05T01:45:57.697Z,62.1
2019-01-05T01:46:48.030Z,62.1
2019-01-05T01:47:37.317Z,62.1
2019-01-05T01:48:28.407Z,62.1
2019-01-05T01:49:18.466Z,62.1
2019-01-05T01:50:08.247Z,62.1
2019-01-05T01:50:58.567Z,62.1
2019-01-05T01:51:47.805Z,62.1
2019-01-05T01:52:38.180Z,62.1
2019-01-05T01:53:28.747Z,62.1
2019-01-05T01:54:18.532Z,62.1
2019-01-05T01:55:07.822Z,62.1
2019-01-05T01:55:58.367Z,62.1
2019-01-05T01:56:48.979Z,62
2019-01-05T01:57:37.649Z,62
2019-01-05T01:58:29.134Z,62
2019-01-05T01:59:18.877Z,62
2019-01-05T02:00:08.943Z,62
2019-01-05T02:00:58.997Z,62
2019-01-05T02:01:48.785Z,61.9
2019-01-05T02:02:38.822Z,61.9
2019-01-05T02:03:29.141Z,61.9
2019-01-05T02:04:18.924Z,61.9
2019-01-05T02:05:09.544Z,61.9
2019-01-05T02:05:59.054Z,61.9
2019-01-05T02:06:49.646Z,61.9
2019-01-05T02:07:38.887Z,61.9
2019-01-05T02:08:29.496Z,61.9
2019-01-05T02:09:19.321Z,61.9
2019-01-05T02:10:09.336Z,61.9
2019-01-05T02:10:59.943Z,61.9
2019-01-05T02:11:49.443Z,61.9
2019-01-05T02:12:39.763Z,61.9
2019-01-05T02:13:30.161Z,61.8
2019-01-05T02:14:19.090Z,61.8
2019-01-05T02:15:09.711Z,61.8
2019-01-05T02:15:59.734Z,61.8
2019-01-05T02:16:50.565Z,61.8
2019-01-05T02:17:40.107Z,61.8
2019-01-05T02:18:30.164Z,61.8
2019-01-05T02:19:19.669Z,61.8
2019-01-05T02:20:10.030Z,61.8
2019-01-05T02:20:59.795Z,61.8
2019-01-05T02:21:50.377Z,61.8
2019-01-05T02:22:40.717Z,61.8
2019-01-05T02:23:29.960Z,61.8
2019-01-05T02:24:20.845Z,61.7
2019-01-05T02:25:10.930Z,61.7
2019-01-05T02:26:00.958Z,61.7
2019-01-05T02:26:51.001Z,61.7
2019-01-05T02:27:40.820Z,61.7
2019-01-05T02:28:31.150Z,61.7
2019-01-05T02:29:20.359Z,61.6
2019-01-05T02:30:10.473Z,61.6
2019-01-05T02:31:01.073Z,61.6
2019-01-05T02:31:50.972Z,61.6
2019-01-05T02:32:40.897Z,61.6
2019-01-05T02:33:31.220Z,61.6
2019-01-05T02:34:21.590Z,61.6
2019-01-05T02:35:11.345Z,61.6
2019-01-05T02:36:01.424Z,61.6
2019-01-05T02:36:50.607Z,61.6
2019-01-05T02:37:41.220Z,61.6
2019-01-05T02:38:31.039Z,61.6
2019-01-05T02:39:21.969Z,61.6
2019-01-05T02:40:11.427Z,61.6
2019-01-05T02:41:01.489Z,61.6
2019-01-05T02:41:51.531Z,61.5
2019-01-05T02:42:42.129Z,61.5
2019-01-05T02:43:31.907Z,61.5
2019-01-05T02:44:21.684Z,61.5
2019-01-05T02:45:12.296Z,61.5
2019-01-05T02:46:01.250Z,61.5
2019-01-05T02:46:51.830Z,61.4
2019-01-05T02:47:41.996Z,61.4
2019-01-05T02:48:31.957Z,61.4
2019-01-05T02:49:22.564Z,61.4
2019-01-05T02:50:12.611Z,61.4
2019-01-05T02:51:02.123Z,61.4
2019-01-05T02:51:52.724Z,61.4
2019-01-05T02:52:42.513Z,61.4
2019-01-05T02:53:32.860Z,61.4
2019-01-05T02:54:22.351Z,61.4
2019-01-05T02:55:12.401Z,61.4
2019-01-05T02:56:02.451Z,61.4
2019-01-05T02:56:52.518Z,61.4
2019-01-05T02:57:43.276Z,61.3
2019-01-05T02:58:32.348Z,61.4
2019-01-05T02:59:22.958Z,61.3
2019-01-05T03:00:12.751Z,61.3
2019-01-05T03:01:03.645Z,61.3
2019-01-05T03:01:52.585Z,61.3
2019-01-05T03:02:43.168Z,61.3
2019-01-05T03:03:32.974Z,61.3
2019-01-05T03:04:23.003Z,61.3
2019-01-05T03:05:13.339Z,61.3
2019-01-05T03:06:03.391Z,61.3
2019-01-05T03:06:52.928Z,61.3
2019-01-05T03:07:43.565Z,61.3
2019-01-05T03:08:33.340Z,61.3
2019-01-05T03:09:23.654Z,61.3
2019-01-05T03:10:13.415Z,61.2
2019-01-05T03:11:03.467Z,61.2
2019-01-05T03:11:54.093Z,61.2
2019-01-05T03:12:44.144Z,61.2
2019-01-05T03:13:33.687Z,61.2
2019-01-05T03:14:23.803Z,61.2
2019-01-05T03:15:14.306Z,61.1
2019-01-05T03:16:03.798Z,61.1
2019-01-05T03:16:53.368Z,61.1
2019-01-05T03:17:44.237Z,61.1
2019-01-05T03:18:34.596Z,61.1
2019-01-05T03:19:24.388Z,61.1
2019-01-05T03:20:14.140Z,61.1
2019-01-05T03:21:04.719Z,61.1
2019-01-05T03:21:54.762Z,61.1
2019-01-05T03:22:44.322Z,61.1
2019-01-05T03:23:34.932Z,61.1
2019-01-05T03:24:24.374Z,61.1
2019-01-05T03:25:14.217Z,61.1
2019-01-05T03:26:04.777Z,61.1
2019-01-05T03:26:54.549Z,61
2019-01-05T03:27:44.315Z,61
2019-01-05T03:28:34.939Z,61
2019-01-05T03:29:25.288Z,61
2019-01-05T03:30:14.920Z,61
2019-01-05T03:31:05.545Z,61
2019-01-05T03:31:55.274Z,60.9
2019-01-05T03:32:45.100Z,60.9
2019-01-05T03:33:35.298Z,60.9
2019-01-05T03:34:25.061Z,60.9
2019-01-05T03:35:15.154Z,60.9
2019-01-05T03:36:04.915Z,60.9
2019-01-05T03:36:55.231Z,60.9
2019-01-05T03:37:45.570Z,60.9
2019-01-05T03:38:35.626Z,60.9
2019-01-05T03:39:25.459Z,60.9
2019-01-05T03:40:16.022Z,60.9
2019-01-05T03:41:05.255Z,60.9
2019-01-05T03:41:55.570Z,60.9
2019-01-05T03:42:45.953Z,60.9
2019-01-05T03:43:35.974Z,60.8
2019-01-05T03:44:25.485Z,60.8
2019-01-05T03:45:15.808Z,60.8
2019-01-05T03:46:06.408Z,60.8
2019-01-05T03:46:55.893Z,60.8
2019-01-05T03:47:45.701Z,60.8
2019-01-05T03:48:36.822Z,60.8
2019-01-05T03:49:26.402Z,60.8
2019-01-05T03:50:16.190Z,60.8
2019-01-05T03:51:06.733Z,60.8
2019-01-05T03:51:55.716Z,60.8
2019-01-05T03:52:46.582Z,60.8
2019-01-05T03:53:36.877Z,60.8
2019-01-05T03:54:26.680Z,60.7
2019-01-05T03:55:17.087Z,60.7
2019-01-05T03:56:06.535Z,60.7
2019-01-05T03:56:56.882Z,60.7
2019-01-05T03:57:46.911Z,60.7
2019-01-05T03:58:36.697Z,60.7
2019-01-05T03:59:27.055Z,60.7
2019-01-05T04:00:16.564Z,60.6
2019-01-05T04:01:07.431Z,60.6
2019-01-05T04:01:57.456Z,60.6
2019-01-05T04:02:47.537Z,60.6
2019-01-05T04:03:37.029Z,60.6
2019-01-05T04:04:27.364Z,60.6
2019-01-05T04:05:17.184Z,60.6
2019-01-05T04:06:06.667Z,60.6
2019-01-05T04:06:57.276Z,60.6
2019-01-05T04:07:47.646Z,60.6
2019-01-05T04:08:37.639Z,60.6
2019-01-05T04:09:27.773Z,60.6
2019-01-05T04:10:17.213Z,60.6
2019-01-05T04:11:07.239Z,60.6
2019-01-05T04:11:57.886Z,60.6
2019-01-05T04:12:47.986Z,60.5
2019-01-05T04:13:37.996Z,60.5
2019-01-05T04:14:27.511Z,60.5
2019-01-05T04:15:18.378Z,60.5
2019-01-05T04:16:08.157Z,60.5
2019-01-05T04:16:57.944Z,60.5
2019-01-05T04:17:47.993Z,60.4
2019-01-05T04:18:38.071Z,60.4
2019-01-05T04:19:28.668Z,60.4
2019-01-05T04:20:17.881Z,60.4
2019-01-05T04:21:07.679Z,60.4
2019-01-05T04:21:58.836Z,60.4
2019-01-05T04:22:48.627Z,60.4
2019-01-05T04:23:38.709Z,60.4
2019-01-05T04:24:28.723Z,60.4
2019-01-05T04:25:19.213Z,60.4
2019-01-05T04:26:08.885Z,60.4
2019-01-05T04:26:59.191Z,60.4
2019-01-05T04:27:48.951Z,60.4
2019-01-05T04:28:38.204Z,60.3
2019-01-05T04:29:29.097Z,60.3
2019-01-05T04:30:19.911Z,60.3
2019-01-05T04:31:09.178Z,60.3
2019-01-05T04:31:58.424Z,60.3
2019-01-05T04:32:49.311Z,60.3
2019-01-05T04:33:39.335Z,60.3
2019-01-05T04:34:29.695Z,60.3
2019-01-05T04:35:19.193Z,60.3
2019-01-05T04:36:09.319Z,60.3
2019-01-05T04:36:59.622Z,60.3
2019-01-05T04:37:49.463Z,60.3
2019-01-05T04:38:39.422Z,60.3
2019-01-05T04:39:30.030Z,60.3
2019-01-05T04:40:20.082Z,60.2
2019-01-05T04:41:10.284Z,60.2
2019-01-05T04:42:00.186Z,60.2
2019-01-05T04:42:49.416Z,60.2
2019-01-05T04:43:39.798Z,60.2
2019-01-05T04:44:29.827Z,60.2
2019-01-05T04:45:20.150Z,60.2
2019-01-05T05:02:39.591Z,59.9
2019-01-05T05:03:29.381Z,59.9
2019-01-05T05:04:19.444Z,59.9
2019-01-05T05:05:09.806Z,59.9
2019-01-05T05:06:00.058Z,59.9
2019-01-05T05:06:49.928Z,59.9
2019-01-05T05:07:40.653Z,59.9
2019-01-05T05:08:29.728Z,59.9
2019-01-05T05:09:19.222Z,59.9
2019-01-05T05:10:11.542Z,59.9
2019-01-05T05:10:59.975Z,59.9
2019-01-05T05:11:49.938Z,59.9
2019-01-05T05:12:40.593Z,59.9
2019-01-05T05:13:30.015Z,59.9
2019-01-05T05:14:20.647Z,59.8
2019-01-05T05:15:10.146Z,59.8
2019-01-05T05:16:00.766Z,59.8
2019-01-05T05:16:50.335Z,59.8
2019-01-05T05:17:40.566Z,59.8
2019-01-05T05:18:30.925Z,59.8
2019-01-05T05:19:19.886Z,59.8
2019-01-05T05:20:11.351Z,59.8
2019-01-05T05:21:00.823Z,59.8
2019-01-05T05:21:50.165Z,59.8
2019-01-05T05:22:40.427Z,59.8
2019-01-05T05:23:31.015Z,59.8
2019-01-05T05:24:20.785Z,59.8
2019-01-05T05:25:11.117Z,59.7
2019-01-05T05:26:00.978Z,59.7
2019-01-05T05:26:50.714Z,59.7
2019-01-05T05:27:40.877Z,59.7
2019-01-05T05:28:31.389Z,59.7
2019-01-05T05:29:20.932Z,59.7
2019-01-05T05:30:10.992Z,59.6
2019-01-05T05:31:01.825Z,59.6
2019-01-05T05:31:51.535Z,59.6
2019-01-05T05:32:41.296Z,59.6
2019-01-05T05:33:31.664Z,59.6
2019-01-05T05:34:21.721Z,59.6
2019-01-05T05:35:11.494Z,59.6
2019-01-05T05:36:01.274Z,59.6
2019-01-05T05:36:51.617Z,59.6
2019-01-05T05:37:41.951Z,59.6
2019-01-05T05:38:31.736Z,59.6
2019-01-05T05:39:22.339Z,59.6
2019-01-05T05:40:11.877Z,59.6
2019-01-05T05:41:01.623Z,59.6
2019-01-05T05:41:51.923Z,59.5
2019-01-05T05:42:41.734Z,59.5
2019-01-05T05:43:32.606Z,59.5
2019-01-05T05:44:22.682Z,59.5
2019-01-05T05:45:12.761Z,59.5
2019-01-05T05:46:02.800Z,59.5
2019-01-05T05:46:52.063Z,59.4
2019-01-05T05:47:42.635Z,59.4
2019-01-05T05:48:32.145Z,59.4
2019-01-05T05:49:23.038Z,59.4
2019-01-05T05:50:12.823Z,59.4
2019-01-05T05:51:02.306Z,59.4
2019-01-05T05:51:52.984Z,59.4
2019-01-05T05:52:43.003Z,59.4
2019-01-05T05:53:32.757Z,59.4
2019-01-05T05:54:22.261Z,59.4
2019-01-05T05:55:13.158Z,59.4
2019-01-05T05:56:02.925Z,59.4
2019-01-05T05:56:53.234Z,59.4
2019-01-05T05:57:42.750Z,59.4
2019-01-05T05:58:33.939Z,59.3
2019-01-05T05:59:23.429Z,59.3
2019-01-05T06:00:13.478Z,59.3
2019-01-05T06:01:03.830Z,59.3
2019-01-05T06:01:53.316Z,59.3
2019-01-05T06:02:43.925Z,59.3
2019-01-05T06:03:33.980Z,59.3
2019-01-05T06:04:23.786Z,59.3
2019-01-05T06:05:13.549Z,59.3
2019-01-05T06:06:04.118Z,59.3
2019-01-05T06:06:53.374Z,59.3
2019-01-05T06:07:43.692Z,59.2
2019-01-05T06:08:34.267Z,59.3
2019-01-05T06:09:24.101Z,59.2
2019-01-05T06:10:14.137Z,59.2
2019-01-05T06:11:04.519Z,59.2
2019-01-05T06:11:54.267Z,59.2
2019-01-05T06:12:44.037Z,59.2
2019-01-05T06:13:33.879Z,59.2
2019-01-05T06:14:24.147Z,59.1
2019-01-05T06:15:14.776Z,59.1
2019-01-05T06:16:03.979Z,59.1
2019-01-05T06:16:54.347Z,59.1
2019-01-05T06:17:44.364Z,59.1
2019-01-05T06:18:34.446Z,59.1
2019-01-05T06:19:25.054Z,59.1
2019-01-05T06:20:14.273Z,59.1
2019-01-05T06:21:04.603Z,59.1
2019-01-05T06:21:54.656Z,59.1
2019-01-05T06:22:44.983Z,59.1
2019-01-05T06:23:35.042Z,59
2019-01-05T06:24:25.142Z,59
2019-01-05T06:25:15.265Z,59
2019-01-05T06:26:05.222Z,59
2019-01-05T06:26:55.264Z,59
2019-01-05T06:27:44.505Z,59
2019-01-05T06:28:35.659Z,59
2019-01-05T06:29:25.719Z,59
2019-01-05T06:30:15.768Z,59
2019-01-05T06:31:05.547Z,58.9
2019-01-05T06:31:55.871Z,58.9
2019-01-05T06:32:45.659Z,58.9
2019-01-05T06:33:35.462Z,58.9
2019-01-05T06:34:26.375Z,58.9
2019-01-05T06:35:15.917Z,58.9
2019-01-05T06:36:05.929Z,58.9
2019-01-05T06:36:55.936Z,58.9
2019-01-05T06:37:45.721Z,58.9
2019-01-05T06:38:35.788Z,58.9
2019-01-05T06:39:25.901Z,58.8
2019-01-05T06:40:16.173Z,58.8
2019-01-05T06:41:07.288Z,58.8
2019-01-05T06:41:55.741Z,58.8
2019-01-05T06:42:46.371Z,58.8
2019-01-05T06:43:36.401Z,58.8
2019-01-05T06:44:26.998Z,58.8
2019-01-05T06:45:16.763Z,58.8
2019-01-05T06:46:06.848Z,58.8
2019-01-05T06:46:56.901Z,58.8
2019-01-05T06:47:46.693Z,58.8
2019-01-05T06:48:36.453Z,58.8
2019-01-05T06:49:26.838Z,58.8
2019-01-05T06:50:17.661Z,58.8
2019-01-05T06:51:06.910Z,58.7
2019-01-05T06:51:57.244Z,58.7
2019-01-05T06:52:46.736Z,58.7
2019-01-05T06:53:36.779Z,58.7
2019-01-05T06:54:27.143Z,58.6
2019-01-05T06:55:17.428Z,58.7
2019-01-05T06:56:06.947Z,58.6
2019-01-05T06:56:57.565Z,58.6
2019-01-05T06:57:47.067Z,58.6
2019-01-05T06:58:37.410Z,58.6
2019-01-05T06:59:26.657Z,58.6
2019-01-05T07:00:17.202Z,58.6
2019-01-05T07:06:07.102Z,58.5
2019-01-05T07:06:57.974Z,58.5
2019-01-05T07:07:47.757Z,58.5
2019-01-05T07:08:37.822Z,58.5
2019-01-05T07:09:27.872Z,58.5
2019-01-05T07:10:17.944Z,58.5
2019-01-05T07:11:08.257Z,58.5
2019-01-05T07:11:58.060Z,58.4
2019-01-05T07:12:48.659Z,58.5
2019-01-05T07:13:38.225Z,58.4
2019-01-05T07:14:28.521Z,58.4
2019-01-05T07:15:18.304Z,58.4
2019-01-05T07:16:08.599Z,58.4
2019-01-05T07:16:58.626Z,58.4
2019-01-05T07:17:48.705Z,58.4
2019-01-05T07:18:38.511Z,58.4
2019-01-05T07:19:28.849Z,58.4
2019-01-05T07:20:19.128Z,58.4
2019-01-05T07:21:08.725Z,58.4
2019-01-05T07:21:58.506Z,58.3
2019-01-05T07:22:48.781Z,58.3
2019-01-05T07:23:38.566Z,58.3
2019-01-05T07:24:29.443Z,58.3
2019-01-05T07:25:18.661Z,58.3
2019-01-05T07:26:09.831Z,58.3
2019-01-05T07:26:59.625Z,58.3
2019-01-05T07:27:49.382Z,58.3
2019-01-05T07:28:39.438Z,58.3
2019-01-05T07:29:28.946Z,58.3
2019-01-05T07:30:19.550Z,58.2
2019-01-05T07:31:09.886Z,58.2
2019-01-05T07:31:59.442Z,58.2
2019-01-05T07:32:50.048Z,58.2
2019-01-05T07:33:39.221Z,58.2
2019-01-05T07:34:30.118Z,58.1
2019-01-05T07:35:19.608Z,58.2
2019-01-05T07:36:10.215Z,58.1
2019-01-05T07:36:59.736Z,58.1
2019-01-05T07:37:50.055Z,58.1
2019-01-05T07:38:40.400Z,58.1
2019-01-05T07:39:30.215Z,58.1
2019-01-05T07:40:19.965Z,58.1
2019-01-05T07:41:09.955Z,58.1
2019-01-05T07:42:00.339Z,58.1
2019-01-05T07:42:49.862Z,58.1
2019-01-05T07:43:40.222Z,58.1
2019-01-05T07:44:30.520Z,58.1
2019-01-05T07:45:20.572Z,58
2019-01-05T07:46:10.416Z,58
2019-01-05T07:47:01.019Z,58
2019-01-05T07:47:50.195Z,58
2019-01-05T07:48:40.820Z,58
2019-01-05T07:49:31.155Z,57.9
2019-01-05T07:50:21.205Z,57.9
2019-01-05T07:51:10.677Z,57.9
2019-01-05T07:52:00.797Z,57.9
2019-01-05T07:52:51.090Z,57.9
2019-01-05T07:53:41.439Z,57.9
2019-01-05T07:54:31.478Z,57.9
2019-01-05T07:55:21.272Z,57.9
2019-01-05T07:56:11.307Z,57.9
2019-01-05T07:57:01.109Z,57.9
2019-01-05T07:57:51.436Z,57.9
2019-01-05T07:58:41.479Z,57.9
2019-01-05T07:59:31.534Z,57.9
2019-01-05T08:00:21.611Z,57.8
2019-01-05T08:01:10.860Z,57.8
2019-01-05T08:02:01.226Z,57.8
2019-01-05T08:02:51.491Z,57.8
2019-01-05T08:03:41.838Z,57.8
2019-01-05T08:09:31.754Z,57.7
2019-01-05T08:11:12.653Z,57.7
2019-01-05T08:12:02.194Z,57.7
2019-01-05T08:12:52.016Z,57.7
2019-01-05T08:13:42.253Z,57.7
2019-01-05T08:14:32.293Z,57.7
2019-01-05T08:15:22.650Z,57.6
2019-01-05T08:16:12.688Z,57.6
2019-01-05T08:17:02.475Z,57.6
2019-01-05T08:17:52.530Z,57.6
2019-01-05T08:18:42.365Z,57.6
2019-01-05T08:19:32.090Z,57.6
2019-01-05T08:20:22.208Z,57.6
2019-01-05T08:21:12.482Z,57.6
2019-01-05T08:22:03.322Z,57.6
2019-01-05T08:22:52.786Z,57.6
2019-01-05T08:23:42.935Z,57.5
2019-01-05T08:24:33.247Z,57.5
2019-01-05T08:25:23.040Z,57.5
2019-01-05T08:26:12.055Z,57.5
2019-01-05T08:27:02.700Z,57.5
2019-01-05T08:27:52.910Z,57.4
2019-01-05T08:28:43.543Z,57.4
2019-01-05T08:29:33.102Z,57.4
2019-01-05T08:30:23.157Z,57.4
2019-01-05T08:31:13.725Z,57.4
2019-01-05T08:32:03.572Z,57.4
2019-01-05T08:32:53.267Z,57.4
2019-01-05T08:33:44.143Z,57.4
2019-01-05T08:34:33.684Z,57.4
2019-01-05T08:35:23.718Z,57.4
2019-01-05T08:36:13.022Z,57.4
2019-01-05T08:37:02.794Z,57.4
2019-01-05T08:37:53.952Z,57.3
2019-01-05T08:38:43.642Z,57.3
2019-01-05T08:39:34.087Z,57.3
2019-01-05T08:40:24.112Z,57.3
2019-01-05T08:41:13.614Z,57.3
2019-01-05T08:42:04.341Z,57.3
2019-01-05T08:42:53.551Z,57.3
2019-01-05T08:43:44.351Z,57.3
2019-01-05T08:44:34.116Z,57.3
2019-01-05T08:45:24.194Z,57.3
2019-01-05T08:46:13.966Z,57.3
2019-01-05T08:47:04.581Z,57.2
2019-01-05T08:47:54.361Z,57.2
2019-01-05T08:48:45.006Z,57.2
2019-01-05T08:49:33.909Z,57.2
2019-01-05T08:50:24.825Z,57.2
2019-01-05T08:51:14.859Z,57.2
2019-01-05T08:52:05.150Z,57.1
2019-01-05T08:52:54.443Z,57.1
2019-01-05T08:53:44.733Z,57.1
2019-01-05T08:54:35.088Z,57.1
2019-01-05T08:55:24.573Z,57.1
2019-01-05T08:56:15.195Z,57.1
2019-01-05T08:57:04.686Z,57.1
2019-01-05T08:57:54.751Z,57.1
2019-01-05T08:58:45.086Z,57.1
2019-01-05T08:59:35.888Z,57.1
2019-01-05T09:00:25.391Z,57.1
2019-01-05T09:01:15.733Z,57.1
2019-01-05T09:17:06.839Z,56.8
2019-01-05T09:17:56.559Z,56.8
2019-01-05T09:18:46.409Z,56.8
2019-01-05T09:19:36.932Z,56.8
2019-01-05T09:20:27.002Z,56.8
2019-01-05T09:21:16.489Z,56.8
2019-01-05T09:22:07.364Z,56.8
2019-01-05T09:22:57.219Z,56.8
2019-01-05T09:23:46.677Z,56.8
2019-01-05T09:24:36.453Z,56.8
2019-01-05T09:25:27.339Z,56.7
2019-01-05T09:26:17.101Z,56.8
2019-01-05T09:27:07.437Z,56.7
2019-01-05T09:27:57.182Z,56.7
2019-01-05T09:28:47.546Z,56.7
2019-01-05T09:29:37.331Z,56.7
2019-01-05T09:30:26.849Z,56.7
2019-01-05T09:31:17.456Z,56.6
2019-01-05T09:32:06.668Z,56.6
2019-01-05T09:32:57.551Z,56.6
2019-01-05T09:33:47.609Z,56.6
2019-01-05T09:34:37.711Z,56.6
2019-01-05T09:35:27.211Z,56.6
2019-01-05T09:36:18.074Z,56.6
2019-01-05T09:37:07.701Z,56.6
2019-01-05T09:37:57.365Z,56.6
2019-01-05T09:38:48.241Z,56.6
2019-01-05T09:39:37.793Z,56.6
2019-01-05T09:40:28.215Z,56.5
2019-01-05T09:41:18.420Z,56.5
2019-01-05T09:42:07.916Z,56.5
2019-01-05T09:42:58.343Z,56.5
2019-01-05T09:43:48.585Z,56.5
2019-01-05T09:44:37.790Z,56.5
2019-01-05T09:45:28.425Z,56.4
2019-01-05T09:46:17.928Z,56.4
2019-01-05T09:47:07.650Z,56.4
2019-01-05T09:47:58.613Z,56.4
2019-01-05T09:48:48.635Z,56.4
2019-01-05T09:49:38.713Z,56.4
2019-01-05T09:50:28.210Z,56.4
2019-01-05T09:51:18.815Z,56.4
2019-01-05T09:52:09.142Z,56.4
2019-01-05T09:52:58.912Z,56.4
2019-01-05T09:53:48.993Z,56.4
2019-01-05T09:54:38.228Z,56.4
2019-01-05T09:55:28.859Z,56.4
2019-01-05T09:56:18.618Z,56.3
2019-01-05T09:57:08.945Z,56.3
2019-01-05T09:57:59.777Z,56.3
2019-01-05T09:58:49.045Z,56.3
2019-01-05T09:59:39.467Z,56.3
2019-01-05T10:00:28.899Z,56.3
2019-01-05T10:01:19.270Z,56.3
2019-01-05T10:02:08.736Z,56.3
2019-01-05T10:02:59.436Z,56.3
2019-01-05T10:03:49.692Z,56.3
2019-01-05T10:04:39.470Z,56.2
2019-01-05T10:05:30.109Z,56.3
2019-01-05T10:06:20.171Z,56.2
2019-01-05T10:07:09.639Z,56.2
2019-01-05T10:08:00.256Z,56.2
2019-01-05T10:08:49.486Z,56.2
2019-01-05T10:09:39.814Z,56.1
2019-01-05T10:10:30.149Z,56.1
2019-01-05T10:11:19.674Z,56.1
2019-01-05T10:12:10.237Z,56.1
2019-01-05T10:13:00.283Z,56.1
2019-01-05T10:13:50.656Z,56.1
2019-01-05T10:14:39.864Z,56.1
2019-01-05T10:15:30.787Z,56.1
2019-01-05T10:16:20.532Z,56.1
2019-01-05T10:17:10.316Z,56.1
2019-01-05T10:18:00.429Z,56.1
2019-01-05T10:18:49.893Z,56
2019-01-05T10:19:40.756Z,56
2019-01-05T10:20:30.012Z,56
2019-01-05T10:21:20.637Z,56
2019-01-05T10:22:11.256Z,56
2019-01-05T10:23:01.243Z,56
2019-01-05T10:23:51.340Z,55.9
2019-01-05T10:24:40.835Z,55.9
2019-01-05T10:25:30.603Z,55.9
2019-01-05T10:26:20.720Z,55.9
2019-01-05T10:27:10.725Z,55.9
2019-01-05T10:28:00.840Z,55.9
2019-01-05T10:28:51.115Z,55.9
2019-01-05T10:29:41.445Z,55.9
2019-01-05T10:30:30.972Z,55.9
2019-01-05T10:31:21.287Z,55.9
2019-01-05T10:32:11.323Z,55.9
2019-01-05T10:33:01.427Z,55.9
2019-01-05T10:33:51.712Z,55.8
2019-01-05T10:34:41.795Z,55.8
2019-01-05T10:35:31.570Z,55.8
2019-01-05T10:36:21.610Z,55.8
2019-01-05T10:37:11.424Z,55.8
2019-01-05T10:38:01.505Z,55.8
2019-01-05T10:38:51.779Z,55.8
2019-01-05T10:39:42.118Z,55.8
2019-01-05T10:40:31.639Z,55.8
2019-01-05T10:41:21.680Z,55.8
2019-01-05T10:42:12.015Z,55.8
2019-01-05T10:43:02.067Z,55.7
2019-01-05T10:43:52.702Z,55.7
2019-01-05T10:44:42.197Z,55.7
2019-01-05T10:45:32.807Z,55.7
2019-01-05T10:46:22.574Z,55.7
2019-01-05T10:47:12.624Z,55.7
2019-01-05T10:48:02.968Z,55.7
2019-01-05T10:48:52.746Z,55.6
2019-01-05T10:49:42.569Z,55.6
2019-01-05T10:50:32.357Z,55.6
2019-01-05T10:51:22.372Z,55.6
2019-01-05T10:52:12.430Z,55.6
2019-01-05T10:53:02.492Z,55.6
2019-01-05T10:53:53.081Z,55.6
2019-01-05T10:54:43.148Z,55.6
2019-01-05T10:55:33.481Z,55.6
2019-01-05T10:56:22.446Z,55.6
2019-01-05T10:57:13.636Z,55.6
2019-01-05T10:58:02.549Z,55.5
2019-01-05T10:58:53.446Z,55.5
2019-01-05T10:59:42.974Z,55.5
2019-01-05T11:00:33.258Z,55.5
2019-01-05T11:01:23.391Z,55.5
2019-01-05T11:02:13.394Z,55.5
2019-01-05T11:03:02.883Z,55.5
2019-01-05T11:03:54.021Z,55.4
2019-01-05T11:04:43.586Z,55.4
2019-01-05T11:05:33.150Z,55.4
2019-01-05T11:06:23.470Z,55.4
2019-01-05T11:07:13.728Z,55.4
2019-01-05T11:08:03.767Z,55.4
2019-01-05T11:08:54.380Z,55.4
2019-01-05T11:09:42.418Z,55.4
2019-01-05T11:10:34.228Z,55.4
2019-01-05T11:11:24.005Z,55.4
2019-01-05T11:12:14.631Z,55.3
2019-01-05T11:13:03.850Z,55.3
2019-01-05T11:13:54.457Z,55.3
2019-01-05T11:14:45.102Z,55.3
2019-01-05T11:15:34.555Z,55.3
2019-01-05T11:16:24.630Z,55.3
2019-01-05T11:17:14.755Z,55.3
2019-01-05T11:18:04.753Z,55.3
2019-01-05T11:18:55.117Z,55.3
2019-01-05T11:19:44.812Z,55.3
2019-01-05T11:20:39.494Z,55.3
2019-01-05T11:21:25.282Z,55.3
2019-01-05T11:22:14.803Z,55.2
2019-01-05T11:23:05.104Z,55.2
2019-01-05T11:23:55.162Z,55.2
2019-01-05T11:24:44.650Z,55.2
2019-01-05T11:25:35.585Z,55.2
2019-01-05T11:26:25.302Z,55.2
2019-01-05T11:27:14.818Z,55.1
2019-01-05T11:28:05.707Z,55.1
2019-01-05T11:28:55.524Z,55.1
2019-01-05T11:29:45.539Z,55.1
2019-01-05T11:30:34.789Z,55.1
2019-01-05T11:31:25.681Z,55.1
2019-01-05T11:32:14.912Z,55.1
2019-01-05T11:33:06.074Z,55.1
2019-01-05T11:33:55.821Z,55.1
2019-01-05T11:34:45.590Z,55.1
2019-01-05T11:35:36.257Z,55.1
2019-01-05T11:36:26.017Z,55
2019-01-05T11:37:15.496Z,55
2019-01-05T11:38:05.859Z,55
2019-01-05T11:38:56.458Z,55
2019-01-05T11:39:45.956Z,55
2019-01-05T11:40:36.327Z,55
2019-01-05T11:41:26.614Z,55
2019-01-05T11:42:16.214Z,54.9
2019-01-05T11:43:06.259Z,54.9
2019-01-05T11:43:56.577Z,54.9
2019-01-05T11:44:46.326Z,54.9
2019-01-05T11:45:37.037Z,54.9
2019-01-05T11:46:26.773Z,54.9
2019-01-05T11:47:17.009Z,54.9
2019-01-05T11:48:07.088Z,54.9
2019-01-05T11:48:56.869Z,54.9
2019-01-05T11:49:46.895Z,54.9
2019-01-05T11:50:36.981Z,54.8
2019-01-05T11:51:26.790Z,54.9
2019-01-05T11:52:17.090Z,54.8
2019-01-05T11:53:07.141Z,54.8
2019-01-05T11:53:56.991Z,54.8
2019-01-05T11:54:47.003Z,54.8
2019-01-05T11:55:37.592Z,54.8
2019-01-05T11:56:27.108Z,54.8
2019-01-05T11:57:17.160Z,54.8
2019-01-05T11:58:07.184Z,54.8
2019-01-05T11:58:57.552Z,54.8
2019-01-05T11:59:47.653Z,54.8
2019-01-05T12:00:37.130Z,54.7
2019-01-05T12:01:27.444Z,54.7
2019-01-05T12:02:23.267Z,54.7
2019-01-05T12:03:07.592Z,54.7
2019-01-05T12:03:57.869Z,54.7
2019-01-05T12:04:47.734Z,54.6
2019-01-05T12:05:38.264Z,54.7
2019-01-05T12:06:27.876Z,54.6
2019-01-05T12:07:17.578Z,54.6
2019-01-05T12:08:08.193Z,54.6